Time;durP1;ratioP1;P1;durP2;ratioP2;P2;SDS_P1;SDS_P2;PMS_P1;PMS_P2;Temp;Humidity;BMP_temperature;BMP_pressure;BME280_temperature;BME280_humidity;BME280_pressure;Samples;Min_cycle;Max_cycle;Signal;HPM_P1;HPM_P2
2022/08/21 00:01:59;;;;;;;1.10;1.00;;;20.90;57.20;;;;;;5038870;28;20281;-57
2022/08/21 00:04:25;;;;;;;1.33;1.00;;;21.00;57.50;;;;;;5022332;28;20245;-57
2022/08/21 00:06:52;;;;;;;1.00;0.90;;;21.00;57.90;;;;;;5039182;28;20194;-57
2022/08/21 00:09:19;;;;;;;1.40;1.30;;;20.90;57.90;;;;;;5038548;28;20194;-57
2022/08/21 00:11:44;;;;;;;1.10;1.00;;;21.00;58.20;;;;;;5031763;28;20186;-57
2022/08/21 00:14:11;;;;;;;2.13;1.30;;;21.00;58.40;;;;;;5029498;28;20520;-57
2022/08/21 00:16:38;;;;;;;1.23;1.13;;;20.90;57.70;;;;;;5033201;28;20305;-57
2022/08/21 00:19:06;;;;;;;2.13;1.10;;;20.90;58.30;;;;;;5056195;28;20178;-57
2022/08/21 00:21:32;;;;;;;1.23;1.13;;;20.90;58.50;;;;;;5039264;28;20182;-57
2022/08/21 00:23:58;;;;;;;2.70;1.20;;;20.90;58.80;;;;;;5003452;28;20222;-57
2022/08/21 00:26:23;;;;;;;1.53;1.13;;;21.00;59.10;;;;;;5039818;28;20237;-57
2022/08/21 00:28:49;;;;;;;1.70;1.20;;;21.00;59.50;;;;;;5058563;28;20268;-57
2022/08/21 00:31:16;;;;;;;1.17;1.07;;;20.90;60.00;;;;;;5029189;28;20280;-57
2022/08/21 00:33:42;;;;;;;1.47;1.07;;;20.90;60.60;;;;;;5058335;28;20214;-57
2022/08/21 00:36:08;;;;;;;0.90;0.90;;;20.90;60.60;;;;;;5060963;28;20220;-57
2022/08/21 00:38:34;;;;;;;1.20;1.10;;;20.90;60.00;;;;;;5058412;28;20195;-57
2022/08/21 00:41:02;;;;;;;1.03;1.03;;;20.80;60.20;;;;;;5061819;28;20189;-57
2022/08/21 00:43:31;;;;;;;1.23;1.10;;;20.90;60.20;;;;;;5086258;28;20214;-57
2022/08/21 00:45:58;;;;;;;2.67;1.30;;;20.80;60.40;;;;;;5058100;28;20182;-57
2022/08/21 00:48:25;;;;;;;1.20;1.10;;;20.80;60.60;;;;;;5041006;28;20182;-57
2022/08/21 00:51:05;;;;;;;2.10;1.20;;;20.80;60.30;;;;;;5057876;28;20236;-57
2022/08/21 00:53:32;;;;;;;1.37;1.27;;;20.80;59.90;;;;;;5075216;28;20191;-57
2022/08/21 00:55:59;;;;;;;1.37;1.27;;;20.80;57.90;;;;;;5041635;28;20215;-57
2022/08/21 00:58:27;;;;;;;1.50;1.40;;;20.80;58.80;;;;;;5037525;28;20202;-57
2022/08/21 01:00:53;;;;;;;1.47;1.20;;;20.80;58.70;;;;;;5051580;28;20204;-57
2022/08/21 01:03:22;;;;;;;1.43;1.00;;;20.80;59.00;;;;;;5079182;28;20245;-57
2022/08/21 01:05:47;;;;;;;0.77;0.77;;;20.80;59.60;;;;;;5078371;28;20173;-57
2022/08/21 01:08:16;;;;;;;1.37;1.27;;;20.80;59.50;;;;;;5041318;28;20213;-57
2022/08/21 01:10:42;;;;;;;1.30;1.20;;;20.80;59.30;;;;;;5055897;28;20197;-57
2022/08/21 01:13:10;;;;;;;1.23;0.90;;;20.80;58.20;;;;;;5024231;28;20213;-57
2022/08/21 01:15:39;;;;;;;2.87;1.33;;;20.80;58.30;;;;;;5058023;28;20213;-57
2022/08/21 01:18:07;;;;;;;1.10;1.00;;;20.70;57.40;;;;;;5057235;28;20216;-57
2022/08/21 01:20:33;;;;;;;1.03;0.93;;;20.80;57.90;;;;;;5058805;28;20189;-57
2022/08/21 01:23:02;;;;;;;1.20;1.10;;;20.80;56.70;;;;;;5047597;28;20209;-57
2022/08/21 01:25:28;;;;;;;1.20;0.80;;;20.70;56.70;;;;;;5059194;28;20251;-57
2022/08/21 01:27:54;;;;;;;1.70;1.60;;;20.70;56.90;;;;;;5063738;28;20182;-57
2022/08/21 01:30:26;;;;;;;2.27;1.37;;;20.70;56.40;;;;;;5057062;28;20186;-57
2022/08/21 01:32:53;;;;;;;1.00;0.90;;;20.70;57.00;;;;;;5057035;28;20182;-57
2022/08/21 01:35:20;;;;;;;1.50;1.33;;;20.70;57.00;;;;;;5056902;28;20189;-57
2022/08/21 01:37:47;;;;;;;1.03;0.90;;;20.70;56.20;;;;;;5064027;28;20197;-57
2022/08/21 01:40:17;;;;;;;2.40;1.27;;;20.70;56.70;;;;;;5040432;28;20193;-57
2022/08/21 01:42:43;;;;;;;1.20;1.10;;;20.70;56.80;;;;;;5057156;28;20290;-57
2022/08/21 01:45:11;;;;;;;1.30;1.20;;;20.70;56.80;;;;;;5057311;28;20193;-57
2022/08/21 01:47:37;;;;;;;1.00;1.00;;;20.70;57.10;;;;;;5074569;28;20192;-57
2022/08/21 01:50:06;;;;;;;1.27;1.17;;;20.80;57.00;;;;;;5057559;28;20189;-57
2022/08/21 01:52:32;;;;;;;1.40;1.30;;;20.70;56.30;;;;;;5075640;28;20191;-57
2022/08/21 01:54:58;;;;;;;1.77;1.20;;;20.70;56.10;;;;;;5021999;28;20202;-57
2022/08/21 01:57:24;;;;;;;1.17;1.03;;;20.70;56.50;;;;;;5087683;28;20185;-57
2022/08/21 01:59:50;;;;;;;1.30;1.17;;;20.70;55.90;;;;;;5056704;28;20185;-57
2022/08/21 02:02:16;;;;;;;1.60;1.30;;;20.70;56.80;;;;;;5040014;28;20213;-57
2022/08/21 02:04:41;;;;;;;1.00;0.97;;;20.70;56.70;;;;;;5039865;28;20185;-57
2022/08/21 02:07:07;;;;;;;2.10;1.13;;;20.70;56.60;;;;;;5023702;28;20276;-57
2022/08/21 02:09:33;;;;;;;1.20;1.10;;;20.70;56.40;;;;;;5023865;28;20224;-57
2022/08/21 02:11:59;;;;;;;1.30;1.20;;;20.70;56.80;;;;;;5049952;28;20297;-57
2022/08/21 02:14:25;;;;;;;1.07;0.97;;;20.70;57.00;;;;;;5057749;28;20343;-57
2022/08/21 02:16:51;;;;;;;1.67;1.30;;;20.70;56.70;;;;;;5062263;28;20193;-57
2022/08/21 02:19:17;;;;;;;1.40;1.30;;;20.60;57.00;;;;;;5068906;28;20190;-57
2022/08/21 02:21:43;;;;;;;2.20;1.50;;;20.70;58.20;;;;;;5043628;28;20200;-57
2022/08/21 02:24:10;;;;;;;1.47;1.30;;;20.70;58.30;;;;;;5056456;28;20189;-57
2022/08/21 02:26:36;;;;;;;1.40;1.30;;;20.70;57.20;;;;;;5056046;28;20276;-57
2022/08/21 02:29:02;;;;;;;1.40;1.30;;;20.60;57.30;;;;;;5090197;28;20193;-57
2022/08/21 02:31:28;;;;;;;1.70;1.60;;;20.70;57.70;;;;;;5055740;28;20202;-57
2022/08/21 02:33:54;;;;;;;2.57;1.33;;;20.70;57.80;;;;;;5050206;28;20194;-57
2022/08/21 02:36:20;;;;;;;1.33;1.10;;;20.70;58.20;;;;;;5072271;28;20299;-57
2022/08/21 02:38:46;;;;;;;1.70;1.60;;;20.70;58.20;;;;;;5053462;28;20190;-57
2022/08/21 02:41:18;;;;;;;1.37;1.27;;;20.70;58.00;;;;;;5036093;28;20200;-57
2022/08/21 02:43:44;;;;;;;1.30;1.20;;;20.70;58.30;;;;;;5053085;28;20259;-57
2022/08/21 02:46:13;;;;;;;1.90;1.43;;;20.70;57.60;;;;;;5073738;28;20181;-57
2022/08/21 02:48:39;;;;;;;1.07;1.07;;;20.70;57.50;;;;;;5052565;28;20194;-57
2022/08/21 02:51:15;;;;;;;1.30;1.20;;;20.70;57.80;;;;;;5058216;28;20193;-57
2022/08/21 02:53:42;;;;;;;2.40;1.20;;;20.70;57.20;;;;;;5074931;28;20239;-57
2022/08/21 02:56:09;;;;;;;1.90;1.57;;;20.70;57.40;;;;;;5073383;28;20189;-57
2022/08/21 02:58:45;;;;;;;1.53;1.40;;;20.60;57.40;;;;;;5032592;28;20187;-57
2022/08/21 03:01:12;;;;;;;1.40;1.30;;;20.70;57.10;;;;;;5045048;28;20226;-57
2022/08/21 03:03:40;;;;;;;1.57;1.47;;;20.70;57.70;;;;;;5035515;28;20221;-57
2022/08/21 03:06:08;;;;;;;1.47;1.37;;;20.70;57.50;;;;;;5058772;28;20186;-57
2022/08/21 03:08:34;;;;;;;1.50;1.00;;;20.70;57.40;;;;;;5038391;28;20201;-57
2022/08/21 03:11:00;;;;;;;1.30;1.20;;;20.70;56.80;;;;;;5039175;28;20305;-57
2022/08/21 03:13:27;;;;;;;1.40;1.30;;;20.70;57.20;;;;;;5039545;28;20200;-57
2022/08/21 03:15:53;;;;;;;1.53;1.43;;;20.70;57.70;;;;;;5073567;28;20267;-57
2022/08/21 03:18:19;;;;;;;1.50;1.30;;;20.70;56.70;;;;;;5055909;28;20300;-57
2022/08/21 03:20:46;;;;;;;1.30;1.20;;;20.70;56.90;;;;;;5056189;28;20280;-57
2022/08/21 03:23:13;;;;;;;1.50;1.40;;;20.70;57.00;;;;;;5072131;28;20239;-57
2022/08/21 03:25:39;;;;;;;1.43;1.20;;;20.70;57.00;;;;;;5061884;28;20249;-57
2022/08/21 03:28:14;;;;;;;1.40;1.20;;;20.70;57.50;;;;;;5021506;28;20190;-57
2022/08/21 03:30:44;;;;;;;1.40;1.30;;;20.60;57.50;;;;;;5057554;28;20178;-57
2022/08/21 03:33:10;;;;;;;2.13;1.40;;;20.70;57.20;;;;;;5022666;28;20194;-57
2022/08/21 03:35:36;;;;;;;1.50;1.40;;;20.70;57.60;;;;;;5040009;28;20221;-57
2022/08/21 03:38:02;;;;;;;2.03;1.50;;;20.70;57.70;;;;;;5003186;28;20191;-57
2022/08/21 03:40:29;;;;;;;1.63;1.53;;;20.70;57.70;;;;;;5008491;28;20190;-57
2022/08/21 03:42:54;;;;;;;1.50;1.20;;;20.60;57.40;;;;;;5019711;28;20214;-57
2022/08/21 03:45:20;;;;;;;1.40;1.30;;;20.60;57.60;;;;;;5022965;28;20191;-57
2022/08/21 03:47:57;;;;;;;1.27;1.10;;;20.60;56.40;;;;;;5038953;28;20186;-57
2022/08/21 03:50:27;;;;;;;1.30;1.20;;;20.50;56.70;;;;;;5039092;28;20665;-57
2022/08/21 03:52:53;;;;;;;1.37;1.27;;;20.50;57.20;;;;;;5038933;28;20192;-57
2022/08/21 03:55:19;;;;;;;1.50;1.40;;;20.50;56.60;;;;;;5019970;28;20221;-57
2022/08/21 03:57:45;;;;;;;1.87;1.47;;;20.50;57.00;;;;;;5020198;28;20193;-57
2022/08/21 04:00:12;;;;;;;1.77;1.63;;;20.60;57.20;;;;;;5022835;28;20206;-57
2022/08/21 04:02:39;;;;;;;1.73;1.27;;;20.50;57.80;;;;;;5038912;28;20265;-57
2022/08/21 04:05:06;;;;;;;1.30;1.20;;;20.40;56.60;;;;;;5038622;28;20276;-57
2022/08/21 04:07:32;;;;;;;1.50;1.40;;;20.50;57.00;;;;;;5055382;28;20194;-57
2022/08/21 04:09:57;;;;;;;1.60;1.50;;;20.50;57.50;;;;;;5022576;28;20221;-57
2022/08/21 04:12:23;;;;;;;1.57;1.27;;;20.50;57.10;;;;;;5038851;28;20275;-57
2022/08/21 04:14:51;;;;;;;1.17;1.03;;;20.50;57.20;;;;;;5036468;28;20206;-57
2022/08/21 04:17:17;;;;;;;1.50;1.40;;;20.50;57.00;;;;;;5038214;28;20214;-57
2022/08/21 04:19:43;;;;;;;1.40;1.30;;;20.50;57.40;;;;;;5035977;28;20281;-57
2022/08/21 04:22:09;;;;;;;1.30;1.10;;;20.50;57.70;;;;;;5022221;28;20277;-57
2022/08/21 04:24:34;;;;;;;1.73;1.63;;;20.50;58.10;;;;;;5041509;28;20241;-57
2022/08/21 04:27:00;;;;;;;1.60;1.50;;;20.50;58.70;;;;;;5019531;28;20196;-57
2022/08/21 04:29:26;;;;;;;1.20;1.10;;;20.40;58.90;;;;;;5041778;28;20198;-57
2022/08/21 04:31:52;;;;;;;1.37;1.27;;;20.50;58.80;;;;;;5045879;28;20181;-57
2022/08/21 04:34:18;;;;;;;2.07;1.63;;;20.50;59.30;;;;;;5041606;28;20186;-57
2022/08/21 04:36:43;;;;;;;1.50;1.40;;;20.40;59.50;;;;;;5029093;28;20185;-57
2022/08/21 04:39:09;;;;;;;1.50;1.40;;;20.40;59.60;;;;;;5083010;28;20192;-57
2022/08/21 04:41:36;;;;;;;1.30;1.20;;;20.40;58.40;;;;;;5060780;28;20212;-57
2022/08/21 04:44:02;;;;;;;1.53;1.30;;;20.30;57.80;;;;;;5044489;28;20213;-57
2022/08/21 04:46:28;;;;;;;1.37;1.23;;;20.40;58.10;;;;;;5057886;28;20189;-57
2022/08/21 04:48:54;;;;;;;3.00;1.27;;;20.40;58.70;;;;;;5028110;28;20190;-57
2022/08/21 04:51:34;;;;;;;1.37;1.27;;;20.40;59.10;;;;;;5025289;28;20221;-57
2022/08/21 04:54:14;;;;;;;1.53;1.43;;;20.40;59.50;;;;;;5054995;28;20201;-57
2022/08/21 04:56:45;;;;;;;1.40;1.30;;;20.40;59.70;;;;;;5074453;28;20188;-57
2022/08/21 04:59:17;;;;;;;1.70;1.60;;;20.40;60.10;;;;;;5075884;28;20182;-57
2022/08/21 05:01:44;;;;;;;1.30;1.20;;;20.30;59.70;;;;;;5058052;28;20276;-57
2022/08/21 05:04:13;;;;;;;1.60;1.50;;;20.30;59.40;;;;;;5058132;28;20217;-57
2022/08/21 05:06:43;;;;;;;1.37;1.27;;;20.30;59.10;;;;;;5074102;28;20188;-57
2022/08/21 05:09:09;;;;;;;1.50;1.30;;;20.30;59.20;;;;;;5058534;28;20182;-57
2022/08/21 05:11:36;;;;;;;2.00;1.10;;;20.40;59.10;;;;;;5073829;28;20189;-57
2022/08/21 05:14:02;;;;;;;1.60;1.37;;;20.30;58.80;;;;;;5081103;28;20192;-57
2022/08/21 05:16:28;;;;;;;1.33;1.23;;;20.40;59.00;;;;;;5059270;28;20181;-57
2022/08/21 05:18:53;;;;;;;1.20;1.10;;;20.30;58.30;;;;;;5057376;28;20186;-57
2022/08/21 05:21:20;;;;;;;1.50;1.10;;;20.30;58.30;;;;;;5042475;28;20206;-57
2022/08/21 05:23:46;;;;;;;1.50;1.40;;;20.40;58.10;;;;;;5041096;28;20255;-57
2022/08/21 05:26:12;;;;;;;1.27;1.17;;;20.40;58.20;;;;;;5075118;28;20225;-57
2022/08/21 05:28:38;;;;;;;1.50;1.40;;;20.40;58.50;;;;;;5057274;28;20243;-57
2022/08/21 05:31:03;;;;;;;1.70;1.40;;;20.50;58.40;;;;;;5036706;28;20182;-57
2022/08/21 05:33:29;;;;;;;1.37;1.10;;;20.50;58.30;;;;;;5056831;28;20267;-57
2022/08/21 05:35:55;;;;;;;1.23;1.13;;;20.50;57.70;;;;;;5020729;28;20182;-57
2022/08/21 05:38:27;;;;;;;1.50;1.40;;;20.50;58.30;;;;;;5050231;28;20194;-57
2022/08/21 05:40:53;;;;;;;1.40;1.30;;;20.60;57.50;;;;;;5039338;28;20218;-57
2022/08/21 05:43:19;;;;;;;1.37;1.27;;;20.60;57.50;;;;;;5053962;28;20224;-57
2022/08/21 05:45:45;;;;;;;2.10;1.40;;;20.60;58.10;;;;;;5039161;28;20197;-57
2022/08/21 05:48:19;;;;;;;1.43;1.10;;;20.70;58.20;;;;;;5037523;28;20190;-57
2022/08/21 05:50:47;;;;;;;1.30;1.20;;;20.70;58.10;;;;;;5065199;28;20213;-57
2022/08/21 05:53:14;;;;;;;1.07;0.97;;;20.70;58.50;;;;;;5063253;28;20189;-57
2022/08/21 05:55:41;;;;;;;1.40;1.30;;;20.70;58.80;;;;;;5063705;28;20194;-57
2022/08/21 05:58:07;;;;;;;1.70;1.50;;;20.80;59.20;;;;;;5040395;28;20220;-56
2022/08/21 06:00:33;;;;;;;1.50;1.40;;;20.80;59.50;;;;;;5056175;28;20186;-56
2022/08/21 06:02:59;;;;;;;1.20;1.10;;;20.80;59.40;;;;;;5058315;28;20205;-55
2022/08/21 06:05:25;;;;;;;3.23;1.57;;;20.80;59.80;;;;;;5055217;28;20190;-55
2022/08/21 06:07:51;;;;;;;1.40;1.30;;;20.80;60.80;;;;;;5013707;28;20195;-54
2022/08/21 06:10:17;;;;;;;1.50;1.27;;;20.90;61.00;;;;;;5057051;28;20197;-56
2022/08/21 06:12:42;;;;;;;1.20;1.10;;;20.90;61.30;;;;;;5056198;28;20190;-56
2022/08/21 06:15:08;;;;;;;1.20;1.10;;;20.90;61.40;;;;;;5040248;28;20285;-57
2022/08/21 06:17:34;;;;;;;1.90;1.17;;;20.90;61.70;;;;;;5040152;28;20186;-56
2022/08/21 06:20:00;;;;;;;1.63;1.37;;;20.90;61.40;;;;;;5068365;28;20232;-57
2022/08/21 06:22:25;;;;;;;1.50;1.40;;;21.00;62.60;;;;;;5048146;28;20212;-56
2022/08/21 06:24:51;;;;;;;1.20;0.97;;;20.90;63.40;;;;;;5057537;28;20224;-56
2022/08/21 06:27:17;;;;;;;1.67;1.57;;;21.00;63.10;;;;;;5068891;28;20200;-54
2022/08/21 06:29:44;;;;;;;1.50;1.40;;;21.00;62.30;;;;;;5079725;28;20204;-56
2022/08/21 06:32:13;;;;;;;1.67;1.57;;;21.00;61.70;;;;;;5095821;28;20210;-56
2022/08/21 06:34:40;;;;;;;1.50;1.40;;;21.00;61.90;;;;;;5076677;28;20199;-55
2022/08/21 06:37:06;;;;;;;1.13;1.03;;;21.00;63.30;;;;;;5079523;28;20192;-56
2022/08/21 06:39:32;;;;;;;2.17;1.10;;;21.00;62.40;;;;;;5089208;28;20193;-54
2022/08/21 06:41:58;;;;;;;1.30;1.20;;;21.00;62.60;;;;;;5082825;28;20209;-56
2022/08/21 06:44:24;;;;;;;1.03;0.90;;;21.10;62.90;;;;;;5042642;28;20188;-59
2022/08/21 06:46:49;;;;;;;2.07;1.33;;;21.00;62.10;;;;;;5054654;28;20265;-58
2022/08/21 06:49:15;;;;;;;2.30;1.10;;;21.00;62.10;;;;;;5053104;28;20189;-57
2022/08/21 06:51:41;;;;;;;1.20;1.10;;;21.10;61.20;;;;;;5064036;28;20204;-57
2022/08/21 06:54:06;;;;;;;1.07;1.03;;;21.00;61.40;;;;;;5059963;28;20200;-58
2022/08/21 06:56:33;;;;;;;1.17;1.13;;;21.00;61.60;;;;;;5075988;28;20192;-58
2022/08/21 06:58:59;;;;;;;1.40;1.30;;;21.00;61.40;;;;;;5052178;28;20232;-58
2022/08/21 07:01:26;;;;;;;1.30;1.20;;;21.00;60.70;;;;;;5044431;28;20189;-58
2022/08/21 07:03:52;;;;;;;1.27;1.17;;;21.10;61.20;;;;;;5076773;28;20219;-57
2022/08/21 07:06:17;;;;;;;1.17;1.07;;;21.10;63.10;;;;;;5072395;28;20194;-57
2022/08/21 07:08:43;;;;;;;2.20;1.10;;;21.10;62.70;;;;;;5078306;28;20185;-57
2022/08/21 07:11:21;;;;;;;1.20;1.10;;;21.00;62.20;;;;;;5060623;28;20276;-57
2022/08/21 07:13:48;;;;;;;1.40;1.23;;;21.10;61.80;;;;;;5076290;28;20279;-57
2022/08/21 07:16:13;;;;;;;2.30;1.07;;;21.10;61.70;;;;;;5079856;28;20222;-57
2022/08/21 07:18:39;;;;;;;1.23;1.13;;;21.00;61.10;;;;;;5071351;28;20371;-57
2022/08/21 07:21:07;;;;;;;1.10;1.00;;;21.00;61.40;;;;;;5066870;28;20196;-58
2022/08/21 07:23:36;;;;;;;0.87;0.87;;;21.00;62.20;;;;;;5059669;28;20217;-58
2022/08/21 07:26:02;;;;;;;1.30;0.87;;;21.10;62.50;;;;;;5078958;28;20236;-58
2022/08/21 07:28:29;;;;;;;1.20;1.10;;;21.10;62.80;;;;;;5087299;28;20185;-58
2022/08/21 07:30:57;;;;;;;1.20;1.10;;;21.10;63.00;;;;;;5089021;28;20283;-58
2022/08/21 07:33:24;;;;;;;1.10;1.00;;;21.10;63.60;;;;;;5063202;28;20200;-58
2022/08/21 07:35:50;;;;;;;1.70;1.23;;;21.10;63.70;;;;;;5060795;28;20200;-58
2022/08/21 07:38:15;;;;;;;1.30;1.20;;;21.10;63.80;;;;;;5062697;28;20198;-56
2022/08/21 07:40:41;;;;;;;1.10;1.00;;;21.00;63.90;;;;;;5063079;28;20254;-57
2022/08/21 07:43:08;;;;;;;1.17;1.07;;;21.10;63.70;;;;;;5067848;28;20220;-56
2022/08/21 07:45:33;;;;;;;2.27;1.30;;;21.10;64.10;;;;;;5049850;28;20287;-57
2022/08/21 07:47:59;;;;;;;1.30;1.10;;;21.10;64.40;;;;;;5064614;28;20335;-58
2022/08/21 07:50:25;;;;;;;0.80;0.80;;;21.00;64.00;;;;;;5070615;28;20189;-58
2022/08/21 07:52:51;;;;;;;2.03;1.13;;;21.10;64.40;;;;;;5061957;28;20335;-58
2022/08/21 07:55:19;;;;;;;1.57;1.30;;;21.10;64.70;;;;;;5087119;28;20199;-58
2022/08/21 07:57:45;;;;;;;1.17;1.07;;;21.10;64.90;;;;;;5078287;28;20192;-57
2022/08/21 08:00:16;;;;;;;1.20;1.10;;;21.10;65.40;;;;;;5079193;28;20204;-57
2022/08/21 08:02:45;;;;;;;0.93;0.93;;;21.00;65.70;;;;;;5078189;28;20219;-57
2022/08/21 08:05:12;;;;;;;1.53;0.90;;;21.10;66.20;;;;;;5077287;28;20185;-57
2022/08/21 08:07:38;;;;;;;1.10;1.00;;;21.10;67.10;;;;;;5077226;28;20598;-57
2022/08/21 08:10:06;;;;;;;1.30;1.20;;;21.20;67.00;;;;;;5085561;28;20216;-57
2022/08/21 08:12:33;;;;;;;0.90;0.90;;;21.10;67.20;;;;;;5077298;28;20203;-57
2022/08/21 08:15:00;;;;;;;1.00;1.00;;;21.10;67.50;;;;;;5064679;28;20204;-57
2022/08/21 08:17:26;;;;;;;1.27;1.17;;;21.10;67.70;;;;;;5077831;28;20197;-57
2022/08/21 08:19:53;;;;;;;1.40;1.30;;;21.10;67.30;;;;;;5079547;28;20188;-57
2022/08/21 08:22:23;;;;;;;1.23;1.13;;;21.10;67.90;;;;;;5080326;28;20266;-57
2022/08/21 08:24:51;;;;;;;2.03;1.00;;;21.10;67.70;;;;;;5086300;28;20331;-57
2022/08/21 08:27:18;;;;;;;1.30;1.20;;;21.20;67.60;;;;;;5060656;28;20200;-56
2022/08/21 08:29:44;;;;;;;1.47;1.37;;;21.20;67.90;;;;;;5051086;28;20188;-57
2022/08/21 08:32:10;;;;;;;1.30;1.00;;;21.20;68.00;;;;;;5074793;28;20186;-56
2022/08/21 08:34:37;;;;;;;1.27;1.10;;;21.20;69.10;;;;;;5061780;28;20196;-56
2022/08/21 08:37:03;;;;;;;1.30;1.20;;;21.20;69.20;;;;;;5095337;28;20197;-50
2022/08/21 08:39:29;;;;;;;1.00;1.00;;;21.20;68.50;;;;;;5060608;28;20189;-57
2022/08/21 08:42:10;;;;;;;1.03;0.93;;;21.20;68.60;;;;;;5087604;28;20189;-56
2022/08/21 08:44:37;;;;;;;1.10;1.00;;;21.20;69.00;;;;;;5075050;28;20191;-54
2022/08/21 08:47:04;;;;;;;1.13;1.03;;;21.20;68.60;;;;;;5096368;28;20220;-56
2022/08/21 08:49:58;;;;;;;1.20;1.10;;;21.20;69.40;;;;;;5078255;28;20201;-57
2022/08/21 08:52:33;;;;;;;1.10;1.00;;;21.20;69.00;;;;;;5068038;28;20197;-57
2022/08/21 08:55:16;;;;;;;1.00;1.00;;;21.20;69.30;;;;;;5076580;28;20192;-57
2022/08/21 08:57:45;;;;;;;1.00;0.90;;;21.20;69.90;;;;;;5080270;28;20212;-57
2022/08/21 09:00:15;;;;;;;1.20;1.10;;;21.20;69.80;;;;;;5078093;28;20197;-57
2022/08/21 09:02:43;;;;;;;1.20;1.10;;;21.20;69.50;;;;;;5074313;28;20213;-57
2022/08/21 09:05:20;;;;;;;3.13;1.00;;;21.20;69.90;;;;;;5064238;28;20268;-57
2022/08/21 09:07:58;;;;;;;0.90;0.90;;;21.20;71.00;;;;;;5080103;28;20185;-57
2022/08/21 09:10:46;;;;;;;1.20;1.10;;;21.30;71.10;;;;;;5093956;28;20185;-57
2022/08/21 09:13:12;;;;;;;1.27;0.97;;;21.30;71.20;;;;;;5088840;28;20192;-57
2022/08/21 09:16:02;;;;;;;1.07;1.00;;;21.30;70.80;;;;;;5076590;28;20184;-57
2022/08/21 09:18:46;;;;;;;0.90;0.90;;;21.30;70.80;;;;;;5027730;28;20208;-57
2022/08/21 09:21:37;;;;;;;1.20;1.10;;;21.20;70.40;;;;;;5078980;28;20185;-57
2022/08/21 09:24:18;;;;;;;1.27;1.17;;;21.30;70.80;;;;;;5074884;28;20757;-57
2022/08/21 09:27:07;;;;;;;1.33;1.23;;;21.30;70.50;;;;;;5093995;28;20276;-57
2022/08/21 09:29:36;;;;;;;1.20;1.10;;;21.30;70.50;;;;;;5086788;28;20250;-57
2022/08/21 09:32:06;;;;;;;1.20;1.10;;;21.30;70.20;;;;;;5073581;28;20213;-57
2022/08/21 09:34:32;;;;;;;1.30;1.20;;;21.20;69.70;;;;;;5079740;28;20199;-57
2022/08/21 09:36:59;;;;;;;1.20;1.10;;;21.20;69.40;;;;;;5051370;28;20194;-57
2022/08/21 09:39:28;;;;;;;1.67;1.20;;;21.20;69.10;;;;;;5054206;28;20284;-57
2022/08/21 09:42:05;;;;;;;1.33;1.10;;;21.20;69.10;;;;;;5076205;28;20199;-57
2022/08/21 09:44:39;;;;;;;1.53;1.37;;;21.20;68.60;;;;;;5061982;28;20195;-57
2022/08/21 09:47:05;;;;;;;1.37;1.27;;;21.20;68.70;;;;;;5071826;28;20242;-57
2022/08/21 09:49:34;;;;;;;1.30;1.20;;;21.20;69.20;;;;;;5060356;28;20227;-57
2022/08/21 09:52:02;;;;;;;1.30;1.20;;;21.20;66.30;;;;;;5076782;28;20181;-57
2022/08/21 09:54:40;;;;;;;1.30;1.20;;;21.20;67.20;;;;;;5088150;28;20173;-57
2022/08/21 09:59:54;;;;;;;1.10;1.00;;;21.30;67.40;;;;;;5075390;28;20183;-56
2022/08/21 10:02:32;;;;;;;1.67;1.20;;;21.30;66.90;;;;;;5069688;28;20251;-56
2022/08/21 10:05:14;;;;;;;1.50;1.37;;;21.30;66.70;;;;;;5057624;28;20197;-55
2022/08/21 10:07:40;;;;;;;1.50;1.30;;;21.30;63.30;;;;;;5090479;28;20215;-56
2022/08/21 10:10:19;;;;;;;1.60;1.40;;;21.40;65.30;;;;;;5058924;28;20200;-56
2022/08/21 10:13:06;;;;;;;1.23;1.13;;;21.50;66.00;;;;;;5073814;28;20193;-55
2022/08/21 10:15:50;;;;;;;2.20;1.20;;;21.50;65.40;;;;;;5093327;28;20254;-56
2022/08/21 10:18:44;;;;;;;2.43;1.23;;;21.60;66.20;;;;;;5093169;28;20204;-55
2022/08/21 10:21:23;;;;;;;1.43;1.10;;;21.60;65.80;;;;;;5065477;28;20189;-52
2022/08/21 10:24:18;;;;;;;1.13;1.07;;;21.70;65.50;;;;;;5076451;28;20212;-48
2022/08/21 10:27:10;;;;;;;1.37;1.17;;;21.80;65.80;;;;;;5093414;28;20243;-51
2022/08/21 10:29:56;;;;;;;0.90;0.87;;;21.80;66.40;;;;;;5074345;28;20241;-52
2022/08/21 10:32:29;;;;;;;1.43;1.20;;;21.90;66.10;;;;;;5066023;28;20224;-51
2022/08/21 10:35:10;;;;;;;1.17;1.07;;;22.00;66.60;;;;;;5076335;28;20199;-49
2022/08/21 10:38:02;;;;;;;1.40;1.30;;;22.10;66.70;;;;;;5056675;28;20201;-52
2022/08/21 10:41:02;;;;;;;1.30;1.20;;;22.10;66.00;;;;;;5074046;28;20197;-51
2022/08/21 10:43:28;;;;;;;1.70;1.10;;;22.20;66.10;;;;;;5059251;28;20264;-54
2022/08/21 10:46:30;;;;;;;1.47;1.30;;;22.20;65.30;;;;;;5094256;28;20213;-50
2022/08/21 10:49:07;;;;;;;1.20;1.10;;;22.20;64.80;;;;;;5076749;28;20192;-50
2022/08/21 10:51:37;;;;;;;1.03;1.00;;;22.20;62.90;;;;;;5094346;28;20216;-48
2022/08/21 10:54:15;;;;;;;1.20;1.10;;;22.30;63.40;;;;;;5076747;28;20189;-52
2022/08/21 10:56:42;;;;;;;1.40;1.27;;;22.30;63.40;;;;;;5093997;28;20195;-52
2022/08/21 10:59:30;;;;;;;1.50;1.10;;;22.30;62.50;;;;;;5059701;28;20250;-58
2022/08/21 11:02:08;;;;;;;1.20;1.10;;;22.40;62.30;;;;;;5063742;28;20213;-58
2022/08/21 11:05:01;;;;;;;2.07;0.90;;;22.50;59.50;;;;;;5074235;28;20192;-58
2022/08/21 11:07:56;;;;;;;1.33;1.00;;;22.50;58.80;;;;;;5083174;28;20181;-58
2022/08/21 11:10:26;;;;;;;0.93;0.93;;;22.60;59.60;;;;;;5037451;28;20195;-58
2022/08/21 11:13:01;;;;;;;0.90;0.90;;;22.70;60.60;;;;;;5077479;28;20192;-58
2022/08/21 11:15:36;;;;;;;1.97;0.80;;;22.70;60.00;;;;;;5081372;28;20185;-58
2022/08/21 11:18:21;;;;;;;1.33;1.23;;;22.70;59.90;;;;;;5078306;28;20188;-58
2022/08/21 11:21:02;;;;;;;1.37;0.97;;;22.80;59.80;;;;;;5093179;28;20215;-58
2022/08/21 11:23:38;;;;;;;1.03;0.93;;;22.80;60.50;;;;;;5074196;28;20204;-58
2022/08/21 11:26:34;;;;;;;0.90;0.90;;;22.80;61.20;;;;;;5080101;28;20240;-58
2022/08/21 11:29:09;;;;;;;0.90;0.70;;;22.80;61.20;;;;;;5051583;28;20197;-58
2022/08/21 11:31:55;;;;;;;0.90;0.70;;;22.80;57.10;;;;;;5071281;28;20243;-57
2022/08/21 11:34:40;;;;;;;0.80;0.80;;;22.80;55.30;;;;;;5079381;28;20188;-57
2022/08/21 11:37:14;;;;;;;0.80;0.80;;;22.80;57.30;;;;;;5078322;28;20195;-56
2022/08/21 11:40:08;;;;;;;0.63;0.63;;;22.80;56.30;;;;;;5090464;28;20211;-58
2022/08/21 11:42:47;;;;;;;0.73;0.70;;;22.80;57.40;;;;;;5086511;28;20196;-57
2022/08/21 11:45:53;;;;;;;0.60;0.60;;;22.80;57.20;;;;;;5077810;28;20204;-57
2022/08/21 11:48:24;;;;;;;0.90;0.90;;;22.90;58.10;;;;;;5014115;28;20322;-57
2022/08/21 11:50:52;;;;;;;0.43;0.43;;;23.00;57.80;;;;;;5007717;28;20190;-57
2022/08/21 11:53:39;;;;;;;0.47;0.47;;;23.00;56.50;;;;;;5045306;28;20197;-58
2022/08/21 11:56:14;;;;;;;0.50;0.50;;;23.10;56.10;;;;;;5082694;28;20208;-58
2022/08/21 11:58:55;;;;;;;1.37;0.70;;;23.20;56.70;;;;;;5078815;28;20184;-56
2022/08/21 12:01:50;;;;;;;0.50;0.40;;;23.30;58.30;;;;;;5074751;28;20217;-58
2022/08/21 12:04:29;;;;;;;0.50;0.50;;;23.30;59.50;;;;;;5077515;28;20250;-56
2022/08/21 12:06:56;;;;;;;0.50;0.50;;;23.30;57.30;;;;;;5082298;28;20187;-54
2022/08/21 12:09:24;;;;;;;1.57;0.53;;;23.30;57.10;;;;;;5082020;28;20185;-56
2022/08/21 12:12:11;;;;;;;0.50;0.50;;;23.40;57.90;;;;;;5086391;28;20177;-55
2022/08/21 12:14:48;;;;;;;1.47;0.40;;;23.40;59.10;;;;;;5081794;28;20188;-57
2022/08/21 12:17:38;;;;;;;0.50;0.50;;;23.40;57.30;;;;;;5076278;28;20196;-57
2022/08/21 12:20:31;;;;;;;0.40;0.40;;;23.40;57.20;;;;;;5070998;28;20184;-53
2022/08/21 12:23:09;;;;;;;0.70;0.50;;;23.40;57.60;;;;;;5074825;28;20241;-56
2022/08/21 12:25:47;;;;;;;0.90;0.60;;;23.30;58.40;;;;;;5073982;28;20255;-49
2022/08/21 12:28:21;;;;;;;0.60;0.60;;;23.30;57.70;;;;;;5080175;28;20219;-53
2022/08/21 12:30:47;;;;;;;1.07;0.77;;;23.30;58.20;;;;;;5079481;28;20197;-53
2022/08/21 12:33:33;;;;;;;0.50;0.50;;;23.30;59.60;;;;;;5057387;28;20188;-58
2022/08/21 12:36:13;;;;;;;1.10;0.77;;;23.30;59.30;;;;;;5065829;28;20180;-48
2022/08/21 12:38:45;;;;;;;0.70;0.70;;;23.20;58.80;;;;;;5095755;28;20193;-51
2022/08/21 12:41:17;;;;;;;0.40;0.40;;;23.30;58.90;;;;;;5090888;28;20189;-47
2022/08/21 12:43:52;;;;;;;1.00;0.60;;;23.30;58.90;;;;;;5082598;28;20209;-55
2022/08/21 12:46:44;;;;;;;0.40;0.40;;;23.30;57.90;;;;;;5075591;28;20173;-57
2022/08/21 12:49:14;;;;;;;0.50;0.40;;;23.30;57.50;;;;;;5078238;28;20189;-56
2022/08/21 12:52:01;;;;;;;0.70;0.40;;;23.30;57.70;;;;;;5082601;28;20196;-57
2022/08/21 12:54:30;;;;;;;0.30;0.30;;;23.30;57.00;;;;;;5095036;28;20177;-56
2022/08/21 12:56:58;;;;;;;0.50;0.50;;;23.30;56.70;;;;;;5095111;28;20210;-57
2022/08/21 12:59:24;;;;;;;0.47;0.47;;;23.30;55.90;;;;;;5090323;28;20186;-57
2022/08/21 13:01:51;;;;;;;0.90;0.50;;;23.30;57.00;;;;;;5065877;28;20192;-57
2022/08/21 13:04:22;;;;;;;0.63;0.43;;;23.30;56.10;;;;;;5076220;28;20212;-56
2022/08/21 13:06:51;;;;;;;0.47;0.47;;;23.30;54.50;;;;;;5077878;28;20196;-57
2022/08/21 13:09:21;;;;;;;0.30;0.30;;;23.30;54.50;;;;;;5091412;28;20265;-57